createdAt,value
2023-09-11T00:00:15.699Z,24.97
2023-09-11T00:02:42.781Z,24.90
2023-09-11T00:05:09.864Z,24.84
2023-09-11T00:07:37.561Z,24.75
2023-09-11T00:10:05.433Z,24.66
2023-09-11T00:12:33.082Z,24.66
2023-09-11T00:15:00.107Z,24.60
2023-09-11T00:17:27.342Z,24.54
2023-09-11T00:19:55.558Z,24.52
2023-09-11T00:22:22.671Z,24.51
2023-09-11T00:24:49.632Z,24.56
2023-09-11T00:27:16.728Z,24.57
2023-09-11T00:29:43.632Z,24.50
2023-09-11T00:32:10.540Z,24.52
2023-09-11T00:34:37.419Z,24.48
2023-09-11T00:37:04.549Z,24.41
2023-09-11T00:39:31.486Z,24.33
2023-09-11T00:41:58.480Z,24.30
2023-09-11T00:44:26.356Z,24.27
2023-09-11T00:46:53.410Z,24.29
2023-09-11T00:49:22.107Z,24.29
2023-09-11T00:51:52.111Z,24.26
2023-09-11T00:54:22.380Z,24.28
2023-09-11T00:56:49.681Z,24.28
2023-09-11T00:59:17.254Z,24.22
2023-09-11T01:01:46.210Z,24.23
2023-09-11T01:04:14.046Z,24.26
2023-09-11T01:06:41.199Z,24.31
2023-09-11T01:09:08.236Z,24.33
2023-09-11T01:11:35.255Z,24.31
2023-09-11T01:14:02.968Z,24.25
2023-09-11T01:16:56.533Z,24.21
2023-09-11T01:19:55.813Z,24.25
2023-09-11T01:22:32.006Z,24.34
2023-09-11T01:25:36.385Z,24.42
2023-09-11T01:28:30.508Z,24.49
2023-09-11T01:31:00.578Z,24.54
2023-09-11T01:33:27.739Z,24.59
2023-09-11T01:35:54.791Z,24.61
2023-09-11T01:38:22.252Z,24.62
2023-09-11T01:40:53.927Z,24.61
2023-09-11T01:43:22.612Z,24.59
2023-09-11T01:45:50.133Z,24.57
2023-09-11T01:48:18.083Z,24.53
2023-09-11T01:50:45.342Z,24.50
2023-09-11T01:53:13.026Z,24.49
2023-09-11T01:55:40.352Z,24.49
2023-09-11T01:58:07.347Z,24.52
2023-09-11T02:00:35.047Z,24.50
2023-09-11T02:03:03.235Z,24.50
2023-09-11T02:05:30.341Z,24.47
2023-09-11T02:07:58.340Z,24.44
2023-09-11T02:10:25.325Z,24.41
2023-09-11T02:12:52.329Z,24.34
2023-09-11T02:15:19.361Z,24.27
2023-09-11T02:17:46.351Z,24.23
2023-09-11T02:20:13.407Z,24.22
2023-09-11T02:22:40.348Z,24.14
2023-09-11T02:25:07.546Z,24.06
2023-09-11T02:27:34.484Z,24.02
2023-09-11T02:30:02.784Z,24.03
2023-09-11T02:32:30.886Z,23.97
2023-09-11T02:34:57.919Z,23.87
2023-09-11T02:37:24.990Z,23.78
2023-09-11T02:39:52.065Z,23.71
2023-09-11T02:42:19.081Z,23.62
2023-09-11T02:44:46.083Z,23.58
2023-09-11T02:47:13.086Z,23.53
2023-09-11T02:49:40.455Z,23.56
2023-09-11T02:52:07.402Z,23.60
2023-09-11T02:54:34.711Z,23.60
2023-09-11T02:57:01.755Z,23.62
2023-09-11T02:59:28.818Z,23.63
2023-09-11T03:01:55.981Z,23.56
2023-09-11T03:04:23.228Z,23.47
2023-09-11T03:06:50.315Z,23.36
2023-09-11T03:09:17.753Z,23.38
2023-09-11T03:11:45.083Z,23.38
2023-09-11T03:14:14.949Z,23.35
2023-09-11T03:16:44.918Z,23.34
2023-09-11T03:19:12.557Z,23.40
2023-09-11T03:21:39.606Z,23.43
2023-09-11T03:24:06.963Z,23.44
2023-09-11T03:26:33.976Z,23.44
2023-09-11T03:29:00.955Z,23.44
2023-09-11T03:31:30.174Z,23.35
2023-09-11T03:33:59.204Z,23.22
2023-09-11T03:36:26.338Z,23.11
2023-09-11T03:38:53.323Z,23.07
2023-09-11T03:41:20.393Z,23.02
2023-09-11T03:43:47.917Z,22.97
2023-09-11T03:46:15.785Z,23.00
2023-09-11T03:48:46.108Z,23.03
2023-09-11T03:51:14.799Z,23.02
2023-09-11T03:53:46.966Z,23.03
2023-09-11T03:56:19.595Z,23.05
2023-09-11T03:58:47.184Z,23.11
2023-09-11T04:01:17.658Z,23.17
2023-09-11T04:03:45.284Z,23.22
2023-09-11T04:06:12.388Z,23.24
2023-09-11T04:08:39.366Z,23.25
2023-09-11T04:11:06.265Z,23.27
2023-09-11T04:13:33.259Z,23.26
2023-09-11T04:16:00.268Z,23.18
2023-09-11T04:18:27.404Z,23.15
2023-09-11T04:21:04.722Z,23.15
2023-09-11T04:23:33.216Z,23.10
2023-09-11T04:26:01.090Z,23.01
2023-09-11T04:28:28.346Z,22.88
2023-09-11T04:30:55.611Z,22.80
2023-09-11T04:33:23.444Z,22.71
2023-09-11T04:35:50.862Z,22.65
2023-09-11T04:38:17.833Z,22.62
2023-09-11T04:40:44.732Z,22.54
2023-09-11T04:43:11.741Z,22.50
2023-09-11T04:45:39.104Z,22.50
2023-09-11T04:48:07.049Z,22.54
2023-09-11T04:50:34.838Z,22.56
2023-09-11T04:53:03.576Z,22.54
2023-09-11T04:55:30.832Z,22.46
2023-09-11T04:57:57.869Z,22.38
2023-09-11T05:00:25.765Z,22.37
2023-09-11T05:02:53.150Z,22.38
2023-09-11T05:05:20.178Z,22.40
2023-09-11T05:07:47.215Z,22.43
2023-09-11T05:10:15.923Z,22.42
2023-09-11T05:12:43.419Z,22.37
2023-09-11T05:15:11.177Z,22.32
2023-09-11T05:17:38.359Z,22.25
2023-09-11T05:20:11.576Z,22.19
2023-09-11T05:22:40.997Z,22.17
2023-09-11T05:25:08.858Z,22.17
2023-09-11T05:27:35.970Z,22.13
2023-09-11T05:30:03.546Z,22.15
2023-09-11T05:32:34.272Z,22.20
2023-09-11T05:35:01.387Z,22.19
2023-09-11T05:37:28.615Z,22.21
2023-09-11T05:39:55.709Z,22.19
2023-09-11T05:42:22.942Z,22.22
2023-09-11T05:44:50.150Z,22.27
2023-09-11T05:47:17.703Z,22.30
2023-09-11T05:49:45.000Z,22.30
2023-09-11T05:52:12.645Z,22.27
2023-09-11T05:54:39.946Z,22.22
2023-09-11T05:57:07.594Z,22.14
2023-09-11T05:59:35.495Z,22.13
2023-09-11T06:02:02.605Z,22.17
2023-09-11T06:04:32.178Z,22.18
2023-09-11T06:06:59.236Z,22.17
2023-09-11T06:09:26.141Z,22.18
2023-09-11T06:11:53.790Z,22.23
2023-09-11T06:14:20.838Z,22.26
2023-09-11T06:16:47.896Z,22.34
2023-09-11T06:19:14.937Z,22.40
2023-09-11T06:21:45.778Z,22.45
2023-09-11T06:24:13.612Z,22.53
2023-09-11T06:26:43.089Z,22.63
2023-09-11T06:29:10.111Z,22.69
2023-09-11T06:31:37.081Z,22.75
2023-09-11T06:34:04.210Z,22.75
2023-09-11T06:36:31.172Z,22.74
2023-09-11T06:38:58.213Z,22.78
2023-09-11T06:41:25.214Z,22.82
2023-09-11T06:43:52.218Z,22.92
2023-09-11T06:46:19.258Z,23.02
2023-09-11T06:48:46.572Z,23.15
2023-09-11T06:51:13.882Z,23.43
2023-09-11T06:53:40.872Z,23.64
2023-09-11T06:56:09.431Z,23.95
2023-09-11T06:58:36.422Z,24.15
2023-09-11T07:01:04.321Z,24.30
2023-09-11T07:03:31.400Z,24.40
2023-09-11T07:05:58.632Z,24.63
2023-09-11T07:08:25.657Z,24.96
2023-09-11T07:10:53.194Z,25.40
2023-09-11T07:13:20.178Z,25.80
2023-09-11T07:15:58.050Z,26.23
2023-09-11T07:18:25.593Z,26.56
2023-09-11T07:20:53.397Z,26.51
2023-09-11T07:23:21.816Z,26.67
2023-09-11T07:25:48.858Z,26.84
2023-09-11T07:28:15.926Z,26.88
2023-09-11T07:30:44.936Z,27.04
2023-09-11T07:33:13.123Z,27.35
2023-09-11T07:35:40.228Z,27.66
2023-09-11T07:38:07.437Z,27.96
2023-09-11T07:40:34.484Z,28.23
2023-09-11T07:43:01.688Z,28.43
2023-09-11T07:45:28.711Z,28.69
2023-09-11T07:47:56.347Z,29.05
2023-09-11T07:50:23.387Z,29.40
2023-09-11T07:52:51.718Z,29.69
2023-09-11T07:55:20.568Z,29.95
2023-09-11T07:57:47.866Z,30.17
2023-09-11T08:00:15.391Z,30.38
2023-09-11T08:02:42.753Z,30.55
2023-09-11T08:05:10.313Z,30.64
2023-09-11T08:07:37.394Z,30.81
2023-09-11T08:10:04.943Z,30.95
2023-09-11T08:12:34.248Z,31.26
2023-09-11T08:15:01.195Z,31.44
2023-09-11T08:17:29.264Z,31.65
2023-09-11T08:19:56.282Z,31.82
2023-09-11T08:22:23.284Z,31.92
2023-09-11T08:24:50.234Z,32.07
2023-09-11T08:27:17.378Z,32.23
2023-09-11T08:29:44.374Z,32.37
2023-09-11T08:32:11.374Z,32.58
2023-09-11T08:34:38.301Z,32.62
2023-09-11T08:37:05.260Z,32.66
2023-09-11T08:39:32.205Z,32.93
2023-09-11T08:42:02.100Z,33.25
2023-09-11T08:44:29.232Z,33.59
2023-09-11T08:47:00.016Z,33.93
2023-09-11T08:49:31.973Z,34.20
2023-09-11T08:52:01.021Z,34.50
2023-09-11T08:54:38.809Z,34.67
2023-09-11T08:57:08.312Z,34.82
2023-09-11T08:59:39.209Z,35.01
2023-09-11T09:02:07.037Z,35.22
2023-09-11T09:04:36.501Z,35.44
2023-09-11T09:07:04.065Z,35.67
2023-09-11T09:09:32.340Z,35.91
2023-09-11T09:11:59.835Z,36.20
2023-09-11T09:14:31.811Z,36.47
2023-09-11T09:17:00.238Z,36.64
2023-09-11T09:19:27.208Z,36.74
2023-09-11T09:22:14.367Z,36.99
2023-09-11T09:24:55.730Z,37.26
2023-09-11T09:27:29.915Z,37.55
2023-09-11T09:29:57.029Z,37.76
2023-09-11T09:32:24.111Z,37.84
2023-09-11T09:34:54.453Z,37.87
2023-09-11T09:37:22.579Z,37.46
2023-09-11T09:39:51.479Z,36.59
2023-09-11T09:42:19.145Z,35.74
2023-09-11T09:44:50.614Z,34.99
2023-09-11T09:47:23.210Z,34.40
2023-09-11T09:49:52.677Z,33.92
2023-09-11T09:52:22.007Z,33.49
2023-09-11T09:54:54.218Z,33.16
2023-09-11T09:57:23.411Z,32.96
2023-09-11T09:59:55.878Z,32.72
2023-09-11T10:02:28.864Z,32.49
2023-09-11T10:05:03.021Z,32.30
2023-09-11T10:07:46.880Z,32.04
2023-09-11T10:10:28.509Z,31.84
2023-09-11T10:13:01.538Z,31.65
2023-09-11T10:15:30.397Z,31.61
2023-09-11T10:17:57.856Z,31.49
2023-09-11T10:20:26.159Z,31.38
2023-09-11T10:23:00.724Z,31.21
2023-09-11T10:25:29.966Z,31.12
2023-09-11T10:28:15.082Z,31.03
2023-09-11T10:31:05.372Z,30.99
2023-09-11T10:33:35.998Z,30.92
2023-09-11T10:36:09.151Z,30.84
2023-09-11T10:38:38.013Z,30.80
2023-09-11T10:41:07.031Z,30.75
2023-09-11T10:43:34.186Z,30.69
2023-09-11T10:46:33.709Z,30.60
2023-09-11T10:49:01.790Z,30.60
2023-09-11T10:51:32.550Z,30.56
2023-09-11T10:54:00.097Z,30.51
2023-09-11T10:56:27.172Z,30.47
2023-09-11T10:58:54.281Z,30.45
2023-09-11T11:01:23.912Z,30.44
2023-09-11T11:03:51.464Z,30.42
2023-09-11T11:06:19.413Z,30.39
2023-09-11T11:08:47.856Z,30.32
2023-09-11T11:11:30.914Z,30.16
2023-09-11T11:14:19.148Z,30.10
2023-09-11T11:17:01.778Z,30.09
2023-09-11T11:19:31.084Z,30.13
2023-09-11T11:21:58.634Z,30.13
2023-09-11T11:24:25.969Z,30.05
2023-09-11T11:26:57.641Z,30.00
2023-09-11T11:29:30.531Z,29.94
2023-09-11T11:32:00.515Z,29.89
2023-09-11T11:34:31.178Z,29.86
2023-09-11T11:36:59.750Z,29.89
2023-09-11T11:39:28.739Z,29.91
2023-09-11T11:41:56.656Z,29.92
2023-09-11T11:44:25.858Z,29.85
2023-09-11T11:46:54.613Z,29.88
2023-09-11T11:49:22.182Z,29.93
2023-09-11T11:51:49.241Z,29.97
2023-09-11T11:54:24.419Z,29.96
2023-09-11T11:57:04.574Z,29.96
2023-09-11T11:59:31.895Z,29.98
2023-09-11T12:01:59.049Z,29.96
2023-09-11T12:04:45.025Z,29.95
2023-09-11T12:07:12.656Z,29.93
2023-09-11T12:09:40.788Z,29.95
2023-09-11T12:12:09.509Z,29.96
2023-09-11T12:14:38.216Z,29.98
2023-09-11T12:17:10.172Z,29.99
2023-09-11T12:19:37.197Z,29.97
2023-09-11T12:22:06.881Z,29.99
2023-09-11T12:24:34.267Z,29.98
2023-09-11T12:27:01.832Z,29.96
2023-09-11T12:29:34.026Z,29.95
2023-09-11T12:32:01.581Z,29.93
2023-09-11T12:34:43.793Z,29.89
2023-09-11T12:37:11.069Z,29.88
2023-09-11T12:39:38.013Z,29.88
2023-09-11T12:42:05.516Z,29.90
2023-09-11T12:44:33.257Z,29.91
2023-09-11T12:47:03.199Z,29.90
2023-09-11T12:49:30.305Z,29.88
2023-09-11T12:51:57.250Z,29.84
2023-09-11T12:54:25.644Z,29.80
2023-09-11T12:56:52.840Z,29.82
2023-09-11T12:59:19.864Z,29.82
2023-09-11T13:01:46.837Z,29.79
2023-09-11T13:04:13.824Z,29.78
2023-09-11T13:06:40.817Z,29.79
2023-09-11T13:09:07.748Z,29.78
2023-09-11T13:11:34.668Z,29.78
2023-09-11T13:14:14.791Z,29.78
2023-09-11T13:16:44.935Z,29.75
2023-09-11T13:19:12.971Z,29.76
2023-09-11T13:21:39.945Z,29.75
2023-09-11T13:24:07.249Z,29.74
2023-09-11T13:26:34.406Z,29.74
2023-09-11T13:29:01.361Z,29.75
2023-09-11T13:31:28.829Z,29.73
2023-09-11T13:33:56.264Z,29.69
2023-09-11T13:36:23.390Z,29.70
2023-09-11T13:38:50.481Z,29.69
2023-09-11T13:41:17.443Z,29.64
2023-09-11T13:43:44.722Z,29.60
2023-09-11T13:46:12.349Z,29.60
2023-09-11T13:48:39.572Z,29.61
2023-09-11T13:51:06.988Z,29.64
2023-09-11T13:53:33.993Z,29.67
2023-09-11T13:56:01.057Z,29.65
2023-09-11T13:58:28.091Z,29.64
2023-09-11T14:00:55.046Z,29.64
2023-09-11T14:03:22.185Z,29.62
2023-09-11T14:05:49.227Z,29.57
2023-09-11T14:08:16.634Z,29.53
2023-09-11T14:10:43.630Z,29.49
2023-09-11T14:13:11.990Z,29.51
2023-09-11T14:15:40.016Z,29.51
2023-09-11T14:18:07.869Z,29.51
2023-09-11T14:20:35.176Z,29.50
2023-09-11T14:23:02.303Z,29.47
2023-09-11T14:25:29.213Z,29.43
2023-09-11T14:27:56.244Z,29.42
2023-09-11T14:30:23.408Z,29.36
2023-09-11T14:32:50.659Z,29.34
2023-09-11T14:35:18.507Z,29.35
2023-09-11T14:37:45.616Z,29.33
2023-09-11T14:40:13.531Z,29.32
2023-09-11T14:42:41.598Z,29.28
2023-09-11T14:45:10.240Z,29.21
2023-09-11T14:47:37.359Z,29.19
2023-09-11T14:50:07.393Z,29.19
2023-09-11T14:52:34.530Z,29.19
2023-09-11T14:55:01.565Z,29.09
2023-09-11T14:57:28.712Z,29.01
2023-09-11T14:59:55.854Z,28.98
2023-09-11T15:02:23.073Z,29.00
2023-09-11T15:04:51.985Z,29.02
2023-09-11T15:07:20.820Z,29.06
2023-09-11T15:09:49.353Z,29.10
2023-09-11T15:12:16.929Z,29.12
2023-09-11T15:14:45.330Z,29.13
2023-09-11T15:17:13.159Z,29.09
2023-09-11T15:19:41.956Z,29.05
2023-09-11T15:22:11.660Z,29.02
2023-09-11T15:24:38.679Z,29.01
2023-09-11T15:27:05.910Z,28.98
2023-09-11T15:29:33.073Z,29.01
2023-09-11T15:34:31.385Z,28.97
2023-09-11T15:36:58.320Z,28.93
2023-09-11T15:39:25.282Z,28.91
2023-09-11T15:41:52.340Z,28.91
2023-09-11T15:44:19.290Z,28.91
2023-09-11T15:46:46.324Z,28.92
2023-09-11T15:49:13.329Z,28.91
2023-09-11T15:51:40.339Z,28.89
2023-09-11T15:54:07.503Z,28.86
2023-09-11T15:56:34.499Z,28.87
2023-09-11T15:59:01.564Z,28.85
2023-09-11T16:01:28.542Z,28.84
2023-09-11T16:03:55.650Z,28.82
2023-09-11T16:06:22.681Z,28.82
2023-09-11T16:08:49.945Z,28.83
2023-09-11T16:11:17.287Z,28.84
2023-09-11T16:13:44.221Z,28.82
2023-09-11T16:16:11.269Z,28.81
2023-09-11T16:18:38.347Z,28.79
2023-09-11T16:21:05.327Z,28.77
2023-09-11T16:23:33.767Z,28.74
2023-09-11T16:26:00.732Z,28.74
2023-09-11T16:28:27.808Z,28.73
2023-09-11T16:30:54.751Z,28.64
2023-09-11T16:33:22.460Z,28.57
2023-09-11T16:35:49.647Z,28.53
2023-09-11T16:38:16.702Z,28.49
2023-09-11T16:40:43.692Z,28.46
2023-09-11T16:43:11.285Z,28.44
2023-09-11T16:45:38.861Z,28.44
2023-09-11T16:48:06.345Z,28.45
2023-09-11T16:50:33.516Z,28.43
2023-09-11T16:53:00.491Z,28.40
2023-09-11T16:55:27.555Z,28.39
2023-09-11T16:57:54.551Z,28.33
2023-09-11T17:00:24.483Z,28.29
2023-09-11T17:02:53.973Z,28.22
2023-09-11T17:05:21.758Z,28.11
2023-09-11T17:07:49.096Z,28.02
2023-09-11T17:10:16.158Z,27.93
2023-09-11T17:12:44.201Z,27.85
2023-09-11T17:15:11.745Z,27.86
2023-09-11T17:17:40.612Z,27.90
2023-09-11T17:20:08.080Z,27.94
2023-09-11T17:22:35.108Z,27.91
2023-09-11T17:25:02.646Z,27.91
2023-09-11T17:27:30.470Z,27.95
2023-09-11T17:29:57.468Z,27.94
2023-09-11T17:32:24.573Z,27.88
2023-09-11T17:34:54.334Z,27.81
2023-09-11T17:37:21.367Z,27.75
2023-09-11T17:39:49.951Z,27.71
2023-09-11T17:42:17.132Z,27.70
2023-09-11T17:44:44.224Z,27.68
2023-09-11T17:47:11.239Z,27.67
2023-09-11T17:49:38.241Z,27.65
2023-09-11T17:52:05.431Z,27.63
2023-09-11T17:54:32.523Z,27.59
2023-09-11T17:56:59.619Z,27.55
2023-09-11T17:59:26.732Z,27.50
2023-09-11T18:01:53.688Z,27.47
2023-09-11T18:04:20.754Z,27.41
2023-09-11T18:06:48.200Z,27.38
2023-09-11T18:09:15.776Z,27.35
2023-09-11T18:11:43.380Z,27.33
2023-09-11T18:14:10.699Z,27.31
2023-09-11T18:16:37.801Z,27.29
2023-09-11T18:19:04.781Z,27.26
2023-09-11T18:21:33.284Z,27.21
2023-09-11T18:24:00.371Z,27.17
2023-09-11T18:26:28.961Z,27.15
2023-09-11T18:28:58.613Z,27.12
2023-09-11T18:31:25.639Z,27.10
2023-09-11T18:33:52.785Z,27.09
2023-09-11T18:36:20.166Z,27.09
2023-09-11T18:38:47.293Z,27.08
2023-09-11T18:41:14.303Z,27.08
2023-09-11T18:43:42.277Z,27.04
2023-09-11T18:46:09.343Z,27.00
2023-09-11T18:48:41.760Z,26.97
2023-09-11T18:51:08.999Z,26.95
2023-09-11T18:53:36.068Z,26.90
2023-09-11T18:56:03.114Z,26.86
2023-09-11T18:58:30.169Z,26.84
2023-09-11T19:00:57.166Z,26.84
2023-09-11T19:03:25.035Z,26.81
2023-09-11T19:05:55.008Z,26.78
2023-09-11T19:08:23.150Z,26.78
2023-09-11T19:10:51.118Z,26.76
2023-09-11T19:13:18.222Z,26.73
2023-09-11T19:15:46.113Z,26.69
2023-09-11T19:18:14.160Z,26.64
2023-09-11T19:20:46.115Z,26.56
2023-09-11T19:23:14.961Z,26.52
2023-09-11T19:25:41.911Z,26.48
2023-09-11T19:28:08.927Z,26.46
2023-09-11T19:30:39.034Z,26.40
2023-09-11T19:33:06.253Z,26.38
2023-09-11T19:35:33.297Z,26.36
2023-09-11T19:38:00.243Z,26.34
2023-09-11T19:40:27.184Z,26.29
2023-09-11T19:42:54.161Z,26.29
2023-09-11T19:45:21.212Z,26.30
2023-09-11T19:47:48.231Z,26.28
2023-09-11T19:50:15.440Z,26.29
2023-09-11T19:52:42.567Z,26.22
2023-09-11T19:55:09.694Z,26.13
2023-09-11T19:57:37.498Z,26.10
2023-09-11T20:00:05.200Z,26.07
2023-09-11T20:02:35.461Z,26.02
2023-09-11T20:05:05.576Z,25.98
2023-09-11T20:07:32.597Z,25.90
2023-09-11T20:10:05.302Z,25.84
2023-09-11T20:12:33.532Z,25.81
2023-09-11T20:15:00.660Z,25.80
2023-09-11T20:17:28.742Z,25.76
2023-09-11T20:19:57.463Z,25.72
2023-09-11T20:22:24.391Z,25.65
2023-09-11T20:24:51.333Z,25.60
2023-09-11T20:27:18.343Z,25.56
2023-09-11T20:29:45.345Z,25.52
2023-09-11T20:32:12.389Z,25.50
2023-09-11T20:34:39.663Z,25.48
2023-09-11T20:37:07.135Z,25.42
2023-09-11T20:39:34.195Z,25.35
2023-09-11T20:42:01.264Z,25.29
2023-09-11T20:44:28.423Z,25.22
2023-09-11T20:46:55.721Z,25.19
2023-09-11T20:49:22.729Z,25.08
2023-09-11T20:51:49.720Z,24.90
2023-09-11T20:54:17.230Z,24.75
2023-09-11T20:56:44.631Z,24.43
2023-09-11T20:59:11.607Z,24.34
2023-09-11T21:01:41.444Z,24.42
2023-09-11T21:04:11.079Z,24.41
2023-09-11T21:06:38.524Z,24.39
2023-09-11T21:09:05.702Z,24.33
2023-09-11T21:11:34.476Z,24.35
2023-09-11T21:14:01.840Z,24.45
2023-09-11T21:16:31.419Z,24.55
2023-09-11T21:18:58.502Z,24.62
2023-09-11T21:21:25.610Z,24.59
2023-09-11T21:23:52.602Z,24.65
2023-09-11T21:26:19.603Z,24.67
2023-09-11T21:28:46.540Z,24.71
2023-09-11T21:31:13.471Z,24.63
2023-09-11T21:33:40.606Z,24.57
2023-09-11T21:36:07.703Z,24.58
2023-09-11T21:38:34.774Z,24.59
2023-09-11T21:41:01.745Z,24.59
2023-09-11T21:43:28.645Z,24.56
2023-09-11T21:45:55.639Z,24.55
2023-09-11T21:48:22.668Z,24.55
2023-09-11T21:50:49.858Z,24.56
2023-09-11T21:53:16.808Z,24.55
2023-09-11T21:55:43.802Z,24.56
2023-09-11T21:58:10.718Z,24.58
2023-09-11T22:00:37.944Z,24.59
2023-09-11T22:03:05.028Z,24.62
2023-09-11T22:05:33.794Z,24.61
2023-09-11T22:08:00.771Z,24.62
2023-09-11T22:10:28.030Z,24.56
2023-09-11T22:12:55.063Z,24.58
2023-09-11T22:15:22.106Z,24.60
2023-09-11T22:17:49.238Z,24.57
2023-09-11T22:20:16.230Z,24.55
2023-09-11T22:22:43.213Z,24.53
2023-09-11T22:25:10.385Z,24.52
2023-09-11T22:27:37.329Z,24.48
2023-09-11T22:30:04.670Z,24.46
2023-09-11T22:32:44.879Z,24.43
2023-09-11T22:35:18.856Z,24.38
2023-09-11T22:37:45.770Z,24.33
2023-09-11T22:40:12.758Z,24.32
2023-09-11T22:42:39.693Z,24.34
2023-09-11T22:45:07.447Z,24.35
2023-09-11T22:47:34.423Z,24.31
2023-09-11T22:50:01.407Z,24.27
2023-09-11T22:52:28.436Z,24.27
2023-09-11T22:54:55.356Z,24.23
2023-09-11T22:57:22.370Z,24.21
2023-09-11T22:59:49.434Z,24.17
2023-09-11T23:02:16.436Z,24.15
2023-09-11T23:04:43.358Z,24.11
2023-09-11T23:07:10.810Z,24.05
2023-09-11T23:09:37.789Z,24.00
2023-09-11T23:12:04.982Z,24.00
2023-09-11T23:14:32.088Z,23.99
2023-09-11T23:16:59.055Z,23.99
2023-09-11T23:19:26.013Z,24.00
2023-09-11T23:21:54.325Z,23.99
2023-09-11T23:24:21.347Z,23.96
2023-09-11T23:26:51.607Z,23.92
2023-09-11T23:29:19.251Z,23.87
2023-09-11T23:31:46.506Z,23.83
2023-09-11T23:34:13.484Z,23.83
2023-09-11T23:36:40.675Z,23.83
2023-09-11T23:39:10.380Z,23.83
2023-09-11T23:41:37.619Z,23.85
2023-09-11T23:44:05.394Z,23.84
2023-09-11T23:46:32.512Z,23.79
2023-09-11T23:48:59.468Z,23.72
2023-09-11T23:51:26.639Z,23.68
2023-09-11T23:53:54.024Z,23.66
2023-09-11T23:56:20.966Z,23.64
2023-09-11T23:58:47.946Z,23.63
